Time;durP1;ratioP1;P1;durP2;ratioP2;P2;SDS_P1;SDS_P2;PMS_P1;PMS_P2;Temp;Humidity;BMP_temperature;BMP_pressure;BME280_temperature;BME280_humidity;BME280_pressure;Samples;Min_cycle;Max_cycle;Signal;HPM_P1;HPM_P2
2024/01/05 00:03:07;;;;;;;31.80;15.45;;;;;;;4.58;100.00;99220.50;10463617;28;20056;-81
2024/01/05 00:08:10;;;;;;;28.42;15.80;;;;;;;4.58;100.00;99217.81;10455309;28;20049;-80
2024/01/05 00:13:15;;;;;;;32.90;16.77;;;;;;;4.67;100.00;99207.47;10464294;28;20044;-78
2024/01/05 00:18:18;;;;;;;32.03;16.67;;;;;;;4.66;100.00;99201.25;10461887;28;20056;-80
2024/01/05 00:23:21;;;;;;;27.52;15.90;;;;;;;4.70;100.00;99193.94;10455714;28;20052;-81
2024/01/05 00:28:28;;;;;;;26.02;15.13;;;;;;;4.68;100.00;99188.72;10468957;28;20502;-79
2024/01/05 00:33:31;;;;;;;32.28;16.33;;;;;;;4.68;100.00;99186.03;10464728;28;20083;-79
2024/01/05 00:38:34;;;;;;;37.00;16.15;;;;;;;4.65;100.00;99180.13;10467362;28;20104;-79
2024/01/05 00:43:39;;;;;;;34.53;16.80;;;;;;;4.75;100.00;99166.00;10455224;28;20079;-80
2024/01/05 00:48:41;;;;;;;31.45;17.00;;;;;;;4.74;100.00;99161.63;10476316;28;20681;-80
2024/01/05 00:53:45;;;;;;;34.17;15.05;;;;;;;4.72;100.00;99160.09;10476985;28;20049;-81
2024/01/05 00:58:49;;;;;;;31.25;13.85;;;;;;;4.68;100.00;99154.13;10474896;28;20057;-80
2024/01/05 01:03:52;;;;;;;30.00;16.15;;;;;;;4.73;100.00;99149.31;10465783;28;20055;-81
2024/01/05 01:08:55;;;;;;;36.40;17.15;;;;;;;4.70;100.00;99135.41;10462767;28;20068;-80
2024/01/05 01:14:00;;;;;;;36.47;15.32;;;;;;;4.67;100.00;99119.69;10452029;28;20727;-81
2024/01/05 01:19:03;;;;;;;37.70;18.38;;;;;;;4.67;100.00;99111.69;10460317;28;20055;-81
2024/01/05 01:24:07;;;;;;;37.40;16.70;;;;;;;4.66;100.00;99116.16;10455934;28;20048;-80
2024/01/05 01:29:11;;;;;;;31.55;14.82;;;;;;;4.67;100.00;99111.69;10467068;28;20106;-78
2024/01/05 01:34:14;;;;;;;32.55;15.43;;;;;;;4.64;100.00;99099.47;10492318;28;20040;-81
2024/01/05 01:39:17;;;;;;;34.63;15.98;;;;;;;4.62;100.00;99090.78;10514634;28;20117;-82
2024/01/05 01:44:22;;;;;;;33.58;15.05;;;;;;;4.55;100.00;99082.44;10503062;28;20108;-79
2024/01/05 01:49:26;;;;;;;29.88;15.43;;;;;;;4.48;100.00;99078.53;10489250;28;20052;-81
2024/01/05 01:54:32;;;;;;;36.50;14.25;;;;;;;4.42;100.00;99075.50;10496262;28;20072;-79
2024/01/05 01:59:38;;;;;;;33.90;14.45;;;;;;;4.38;100.00;99065.06;10496133;28;20112;-82
2024/01/05 02:04:41;;;;;;;30.58;13.15;;;;;;;4.29;100.00;99056.97;10492777;28;20051;-82
2024/01/05 02:09:44;;;;;;;36.05;12.65;;;;;;;4.30;100.00;99059.50;10483734;28;20114;-81
2024/01/05 02:14:48;;;;;;;35.53;12.65;;;;;;;4.38;100.00;99053.59;10477125;28;20036;-80
2024/01/05 02:19:51;;;;;;;27.85;12.27;;;;;;;4.39;100.00;99042.03;10470196;28;20052;-81
2024/01/05 02:24:56;;;;;;;26.42;10.70;;;;;;;4.25;100.00;99040.41;10485103;28;20046;-81
2024/01/05 02:29:59;;;;;;;20.98;9.15;;;;;;;4.44;100.00;99023.88;10483534;28;20628;-79
2024/01/05 02:35:03;;;;;;;24.52;9.90;;;;;;;4.48;100.00;99014.72;10462468;28;20167;-79
2024/01/05 02:40:09;;;;;;;26.30;9.90;;;;;;;4.50;100.00;99015.44;10498082;28;20055;-78
2024/01/05 02:45:12;;;;;;;22.17;9.80;;;;;;;4.46;100.00;99006.00;10484370;28;20715;-79
2024/01/05 02:50:15;;;;;;;26.83;9.63;;;;;;;4.35;100.00;98990.03;10477932;28;20135;-79
2024/01/05 02:55:20;;;;;;;19.65;8.63;;;;;;;4.39;100.00;98996.81;10484819;28;20381;-81
2024/01/05 03:00:23;;;;;;;28.17;8.77;;;;;;;4.45;100.00;98988.38;10478714;28;21150;-81
2024/01/05 03:05:26;;;;;;;22.05;7.90;;;;;;;4.48;100.00;98979.31;10483652;28;21149;-81
2024/01/05 03:10:31;;;;;;;25.77;7.45;;;;;;;4.55;100.00;98975.19;10470540;28;20048;-80
2024/01/05 03:15:34;;;;;;;22.00;7.68;;;;;;;4.59;100.00;98968.66;10451847;28;20048;-82
2024/01/05 03:20:39;;;;;;;18.77;7.35;;;;;;;4.24;100.00;98945.66;10484728;28;20059;-80
2024/01/05 03:25:45;;;;;;;22.08;6.75;;;;;;;4.22;100.00;98944.94;10481175;28;20763;-81
2024/01/05 03:30:48;;;;;;;20.20;8.07;;;;;;;4.40;100.00;98932.03;10489048;28;20673;-79
2024/01/05 03:35:51;;;;;;;17.63;7.22;;;;;;;4.43;100.00;98926.47;10474709;28;20149;-81
2024/01/05 03:40:55;;;;;;;18.83;6.57;;;;;;;4.57;100.00;98918.25;10490050;28;20170;-79
2024/01/05 03:45:58;;;;;;;20.95;6.75;;;;;;;4.71;100.00;98918.97;10470584;28;20086;-80
2024/01/05 03:51:02;;;;;;;20.58;6.93;;;;;;;4.63;100.00;98892.97;10493695;28;20066;-78
2024/01/05 03:56:08;;;;;;;19.42;6.20;;;;;;;4.53;100.00;98895.53;10503741;28;20056;-80
2024/01/05 04:01:11;;;;;;;14.98;6.40;;;;;;;4.26;100.00;98887.94;10476094;28;20377;-80
2024/01/05 04:06:19;;;;;;;19.58;6.70;;;;;;;4.41;100.00;98880.53;10481822;28;20046;-79
2024/01/05 04:11:25;;;;;;;21.30;7.50;;;;;;;4.32;100.00;98871.50;10459838;28;20057;-79
2024/01/05 04:16:28;;;;;;;17.73;7.00;;;;;;;4.38;100.00;98864.84;10484658;28;20040;-80
2024/01/05 04:21:31;;;;;;;24.20;7.95;;;;;;;4.31;100.00;98861.84;10489390;28;20052;-80
2024/01/05 04:26:36;;;;;;;18.52;6.38;;;;;;;4.27;100.00;98851.56;10467092;28;20100;-80
2024/01/05 04:31:39;;;;;;;16.58;6.07;;;;;;;4.29;100.00;98869.09;10482370;28;20057;-80
2024/01/05 04:36:42;;;;;;;15.95;6.93;;;;;;;4.40;100.00;98860.25;10477592;28;20102;-80
2024/01/05 04:41:47;;;;;;;19.23;7.70;;;;;;;4.42;100.00;98860.97;10485823;28;20684;-80
2024/01/05 04:46:50;;;;;;;19.23;7.40;;;;;;;4.45;100.00;98860.75;10475361;28;20151;-81
2024/01/05 04:51:53;;;;;;;18.98;8.05;;;;;;;4.56;100.00;98855.41;10488084;28;21097;-80
2024/01/05 04:56:58;;;;;;;20.90;7.75;;;;;;;4.66;100.00;98852.81;10471223;28;20048;-80
2024/01/05 05:02:01;;;;;;;18.42;7.55;;;;;;;4.76;100.00;98856.44;10463702;28;20044;-80
2024/01/05 05:07:04;;;;;;;24.73;8.27;;;;;;;4.83;100.00;98856.81;10488478;28;20044;-80
2024/01/05 05:12:09;;;;;;;23.00;8.27;;;;;;;4.87;100.00;98841.44;10493523;28;20052;-80
2024/01/05 05:17:12;;;;;;;18.33;8.10;;;;;;;4.86;100.00;98847.72;10495072;28;20196;-79
2024/01/05 05:22:15;;;;;;;22.52;8.57;;;;;;;4.88;100.00;98843.94;10488885;28;21259;-80
2024/01/05 05:27:19;;;;;;;19.15;7.82;;;;;;;4.96;100.00;98833.53;10491835;28;20051;-80
2024/01/05 05:32:22;;;;;;;28.42;9.20;;;;;;;4.92;100.00;98834.75;10471086;28;20065;-81
2024/01/05 05:37:25;;;;;;;24.45;8.93;;;;;;;5.00;100.00;98837.66;10470921;28;20116;-80
2024/01/05 05:42:30;;;;;;;18.67;8.52;;;;;;;5.02;100.00;98843.72;10493103;28;21195;-80
2024/01/05 05:47:33;;;;;;;24.63;9.35;;;;;;;5.01;100.00;98839.34;10492468;28;20059;-79
2024/01/05 05:52:36;;;;;;;22.45;9.80;;;;;;;5.02;100.00;98840.22;10502548;28;20947;-80
2024/01/05 05:57:41;;;;;;;28.23;10.52;;;;;;;4.88;100.00;98825.31;10493468;28;20055;-79
2024/01/05 06:02:44;;;;;;;26.98;10.70;;;;;;;4.88;100.00;98817.34;10499097;28;20036;-80
2024/01/05 06:07:47;;;;;;;28.45;11.32;;;;;;;4.90;100.00;98815.41;10521579;28;20070;-78
2024/01/05 06:12:51;;;;;;;32.15;12.57;;;;;;;4.88;100.00;98812.03;10500835;28;20047;-79
2024/01/05 06:17:54;;;;;;;29.58;11.55;;;;;;;4.86;100.00;98815.81;10488393;28;20055;-79
2024/01/05 06:22:57;;;;;;;33.90;12.10;;;;;;;4.84;100.00;98821.25;10478216;28;20063;-79
2024/01/05 06:28:01;;;;;;;30.13;12.52;;;;;;;4.86;100.00;98829.09;10493509;28;20055;-79
2024/01/05 06:33:06;;;;;;;27.95;12.57;;;;;;;4.92;100.00;98833.91;10508581;28;20053;-79
2024/01/05 06:38:09;;;;;;;37.88;11.98;;;;;;;4.95;100.00;98825.69;10481340;28;20050;-79
2024/01/05 06:43:14;;;;;;;38.95;13.77;;;;;;;4.96;100.00;98819.38;10494822;28;20151;-79
2024/01/05 06:48:17;;;;;;;27.63;13.40;;;;;;;5.01;100.00;98810.06;10498201;28;20127;-79
2024/01/05 06:53:20;;;;;;;36.65;14.43;;;;;;;5.02;100.00;98808.28;10487865;28;20051;-79
2024/01/05 06:58:24;;;;;;;36.88;13.55;;;;;;;5.14;100.00;98798.41;10482878;28;20040;-79
2024/01/05 07:03:27;;;;;;;32.83;14.95;;;;;;;5.19;100.00;98796.22;10472814;28;20055;-79
2024/01/05 07:08:31;;;;;;;36.75;13.95;;;;;;;5.19;100.00;98806.88;10491178;28;20048;-79
2024/01/05 07:13:35;;;;;;;34.53;13.77;;;;;;;5.17;100.00;98817.63;10493138;28;20059;-79
2024/01/05 07:18:38;;;;;;;37.63;15.30;;;;;;;5.21;100.00;98797.78;10492412;28;20048;-79
2024/01/05 07:23:41;;;;;;;32.92;12.57;;;;;;;5.15;100.00;98816.91;10493636;28;20055;-79
2024/01/05 07:28:46;;;;;;;30.85;14.02;;;;;;;5.24;100.00;98813.50;10489832;28;20116;-79
2024/01/05 07:33:48;;;;;;;41.10;13.68;;;;;;;5.27;100.00;98812.41;10488784;28;20706;-79
2024/01/05 07:38:52;;;;;;;32.65;13.20;;;;;;;5.37;100.00;98801.81;10488735;28;20685;-79
2024/01/05 07:43:56;;;;;;;27.83;13.68;;;;;;;5.42;100.00;98805.75;10497011;28;20048;-78
2024/01/05 07:48:59;;;;;;;32.80;13.48;;;;;;;5.50;100.00;98803.28;10461920;28;20055;-79
2024/01/05 07:54:02;;;;;;;19.45;10.15;;;;;;;5.70;100.00;98790.94;10460412;28;20072;-79
2024/01/05 07:59:07;;;;;;;23.38;8.55;;;;;;;5.79;100.00;98793.78;10482071;28;20061;-78
2024/01/05 08:04:10;;;;;;;25.40;8.85;;;;;;;5.97;100.00;98794.84;10474192;28;20048;-78
2024/01/05 08:09:13;;;;;;;23.48;8.32;;;;;;;6.03;100.00;98806.78;10491983;28;20102;-78
2024/01/05 08:14:18;;;;;;;22.63;8.65;;;;;;;6.10;100.00;98806.13;10486156;28;20049;-79
2024/01/05 08:19:21;;;;;;;18.48;7.93;;;;;;;6.09;100.00;98796.47;10487676;28;20173;-77
2024/01/05 08:24:25;;;;;;;20.35;7.25;;;;;;;6.06;100.00;98801.19;10522925;28;20052;-78
2024/01/05 08:29:30;;;;;;;17.88;7.10;;;;;;;6.12;100.00;98792.69;10485029;28;20048;-80
2024/01/05 08:34:33;;;;;;;13.80;7.28;;;;;;;6.25;100.00;98795.09;10478886;28;20052;-79
2024/01/05 08:39:39;;;;;;;17.15;6.32;;;;;;;6.28;100.00;98790.34;10479779;28;20127;-82
2024/01/05 08:44:44;;;;;;;18.58;7.90;;;;;;;6.31;100.00;98779.41;10498966;28;20058;-82
2024/01/05 08:49:47;;;;;;;16.00;5.15;;;;;;;6.39;100.00;98787.56;10518839;28;20048;-81
2024/01/05 08:54:50;;;;;;;14.35;5.13;;;;;;;6.99;100.00;98779.53;10501232;28;20122;-80
2024/01/05 08:59:54;;;;;;;13.55;4.75;;;;;;;7.60;100.00;98781.00;10500597;28;20410;-80
2024/01/05 09:04:58;;;;;;;16.73;5.43;;;;;;;7.98;100.00;98779.22;10470525;28;20044;-81
2024/01/05 09:10:01;;;;;;;11.05;4.00;;;;;;;7.78;100.00;98772.22;10453297;28;20128;-79
2024/01/05 09:15:07;;;;;;;11.85;3.75;;;;;;;7.53;100.00;98769.19;10446118;28;20596;-81
2024/01/05 09:20:12;;;;;;;10.05;3.58;;;;;;;7.39;100.00;98772.31;10427539;28;20045;-80
2024/01/05 09:25:15;;;;;;;12.45;3.53;;;;;;;7.29;100.00;98772.31;10427286;28;20045;-80
2024/01/05 09:30:20;;;;;;;11.13;3.47;;;;;;;7.32;100.00;98766.69;10445276;28;20061;-80
2024/01/05 09:35:24;;;;;;;15.68;3.47;;;;;;;7.13;100.00;98769.41;10474917;28;20048;-79
2024/01/05 09:40:27;;;;;;;10.85;3.33;;;;;;;7.09;100.00;98779.53;10486406;28;21148;-82
2024/01/05 09:45:33;;;;;;;7.43;3.13;;;;;;;6.97;100.00;98784.16;10438981;28;20048;-80
2024/01/05 09:50:37;;;;;;;16.30;3.72;;;;;;;7.06;100.00;98774.47;10455808;28;20051;-80
2024/01/05 09:55:40;;;;;;;10.88;3.50;;;;;;;7.05;100.00;98768.28;10463313;28;20048;-83
2024/01/05 10:00:49;;;;;;;11.95;3.38;;;;;;;7.14;100.00;98766.59;10462920;28;20055;-81
2024/01/05 10:05:53;;;;;;;10.40;3.47;;;;;;;7.17;100.00;98762.81;10462775;28;21230;-82
2024/01/05 10:10:58;;;;;;;11.02;3.88;;;;;;;7.15;100.00;98760.25;10464223;28;21337;-81
2024/01/05 10:16:04;;;;;;;7.35;2.50;;;;;;;7.12;100.00;98749.88;10490358;28;21288;-80
2024/01/05 10:21:10;;;;;;;5.75;2.50;;;;;;;7.20;100.00;98744.66;10468667;28;20048;-80
2024/01/05 10:26:18;;;;;;;6.00;2.47;;;;;;;7.32;100.00;98748.00;10427654;28;20171;-81
2024/01/05 10:31:22;;;;;;;10.15;2.85;;;;;;;7.33;100.00;98743.53;10444181;28;20058;-81
2024/01/05 10:36:27;;;;;;;10.07;2.63;;;;;;;7.38;100.00;98738.59;10486855;28;20052;-80
2024/01/05 10:41:30;;;;;;;12.05;2.85;;;;;;;7.46;100.00;98728.88;10458622;28;20055;-82
2024/01/05 10:46:35;;;;;;;6.57;2.05;;;;;;;7.55;100.00;98721.81;10461230;28;20487;-81
2024/01/05 10:51:41;;;;;;;7.32;2.53;;;;;;;7.57;100.00;98727.88;10482664;28;20044;-80
2024/01/05 10:56:45;;;;;;;8.75;2.10;;;;;;;7.66;100.00;98732.31;10511479;28;20052;-81
2024/01/05 11:01:50;;;;;;;9.02;2.00;;;;;;;7.66;100.00;98718.13;10506629;28;20036;-82
2024/01/05 11:06:54;;;;;;;6.93;2.10;;;;;;;7.72;100.00;98728.22;10516922;28;20164;-81
2024/01/05 11:12:09;;;;;;;5.53;2.03;;;;;;;7.80;100.00;98725.66;10504444;28;20048;-82
2024/01/05 11:17:52;;;;;;;6.80;2.22;;;;;;;7.59;98.17;98723.19;10487226;28;20578;-82
2024/01/05 11:22:57;;;;;;;5.60;1.80;;;;;;;7.60;99.26;98711.53;10488908;28;20055;-81
2024/01/05 11:28:02;;;;;;;7.60;1.90;;;;;;;7.52;100.00;98716.75;10500527;28;20051;-81
2024/01/05 11:33:07;;;;;;;6.78;1.77;;;;;;;7.46;98.30;98722.66;10503750;28;20054;-81
2024/01/05 11:38:31;;;;;;;5.80;1.63;;;;;;;7.58;96.63;98715.34;10499074;28;20124;-80
2024/01/05 11:43:37;;;;;;;3.95;1.60;;;;;;;7.98;96.63;98722.19;10455853;28;20056;-81
2024/01/05 11:48:51;;;;;;;6.68;2.00;;;;;;;8.52;91.61;98713.31;10461398;28;20068;-80
2024/01/05 11:53:54;;;;;;;6.93;1.52;;;;;;;8.14;91.67;98727.75;10495679;28;20056;-81
2024/01/05 11:58:57;;;;;;;4.13;1.50;;;;;;;7.87;92.06;98723.22;10453673;28;20163;-80
2024/01/05 12:04:02;;;;;;;7.93;2.30;;;;;;;7.63;92.82;98732.63;10439710;28;20057;-81
2024/01/05 12:09:07;;;;;;;4.25;1.70;;;;;;;7.94;90.91;98724.31;10452772;28;20040;-80
2024/01/05 12:14:10;;;;;;;3.60;1.48;;;;;;;8.06;92.55;98724.97;10452074;28;20060;-80
2024/01/05 12:19:21;;;;;;;3.03;1.33;;;;;;;8.06;91.76;98703.56;10459585;28;20052;-80
2024/01/05 12:24:24;;;;;;;5.83;2.20;;;;;;;8.07;91.64;98703.44;10465995;28;20116;-80
2024/01/05 12:29:28;;;;;;;6.13;1.40;;;;;;;7.90;91.63;98713.09;10451310;28;20051;-81
2024/01/05 12:34:32;;;;;;;6.70;1.50;;;;;;;7.87;89.85;98705.38;10501047;28;20052;-79
2024/01/05 12:39:36;;;;;;;3.72;0.90;;;;;;;7.86;92.29;98703.69;10486350;28;20071;-78
2024/01/05 12:44:39;;;;;;;4.60;1.00;;;;;;;7.79;91.92;98691.03;10473599;28;20044;-78
2024/01/05 12:49:43;;;;;;;3.85;0.90;;;;;;;7.72;89.62;98699.66;10482920;28;20048;-82
2024/01/05 12:54:46;;;;;;;3.35;0.52;;;;;;;7.67;85.49;98711.78;10475648;28;20492;-80
2024/01/05 12:59:50;;;;;;;2.92;0.75;;;;;;;7.66;83.29;98702.94;10488217;28;20499;-79
2024/01/05 13:04:54;;;;;;;1.10;0.90;;;;;;;8.04;87.86;98702.91;10484351;28;20430;-79
2024/01/05 13:09:57;;;;;;;1.88;1.17;;;;;;;8.13;90.86;98699.31;10471613;28;20151;-78
2024/01/05 13:15:01;;;;;;;3.63;1.13;;;;;;;7.84;82.42;98705.66;10459272;28;20048;-79
2024/01/05 13:20:08;;;;;;;1.15;0.40;;;;;;;7.43;78.78;98704.25;10474810;28;20171;-78
2024/01/05 13:25:12;;;;;;;0.82;0.40;;;;;;;7.50;74.74;98721.41;10479297;28;20515;-79
2024/01/05 13:30:15;;;;;;;1.00;0.40;;;;;;;7.46;74.21;98728.00;10468182;28;20045;-80
2024/01/05 13:35:20;;;;;;;0.73;0.40;;;;;;;7.00;74.11;98743.00;10471591;28;20052;-78
2024/01/05 13:40:23;;;;;;;0.52;0.52;;;;;;;7.19;74.36;98742.16;10472852;28;20506;-80
2024/01/05 13:45:26;;;;;;;0.13;0.10;;;;;;;7.02;75.44;98741.88;10490292;28;20051;-81
2024/01/05 13:50:30;;;;;;;0.32;0.10;;;;;;;7.18;75.44;98732.44;10473142;28;20048;-80
2024/01/05 13:55:34;;;;;;;0.25;0.15;;;;;;;7.21;75.37;98741.03;10473246;28;20515;-81
2024/01/05 14:00:38;;;;;;;3.03;0.30;;;;;;;7.48;73.18;98745.56;10464722;28;20053;-79
2024/01/05 14:05:42;;;;;;;0.90;0.40;;;;;;;7.36;72.55;98740.56;10472610;28;20045;-79
2024/01/05 14:10:45;;;;;;;0.45;0.40;;;;;;;7.48;71.29;98740.22;10464226;28;20041;-80
2024/01/05 14:15:48;;;;;;;1.17;0.30;;;;;;;7.64;70.03;98733.44;10464254;28;20113;-79
2024/01/05 14:20:53;;;;;;;0.85;0.30;;;;;;;7.63;69.87;98735.28;10446198;28;20124;-78
2024/01/05 14:25:57;;;;;;;1.83;0.35;;;;;;;7.46;69.23;98728.88;10454220;28;20060;-81
2024/01/05 14:31:00;;;;;;;1.40;0.50;;;;;;;7.57;68.02;98729.66;10476605;28;20717;-80
2024/01/05 14:36:05;;;;;;;2.00;0.32;;;;;;;7.59;68.30;98730.38;10457909;28;20051;-79
2024/01/05 14:41:08;;;;;;;1.17;0.50;;;;;;;7.71;68.21;98730.06;10463274;28;20120;-79
2024/01/05 14:46:11;;;;;;;6.47;1.83;;;;;;;7.83;69.85;98737.88;10442458;28;20052;-80
2024/01/05 14:51:15;;;;;;;1.70;0.52;;;;;;;7.62;68.29;98741.59;10434651;28;20063;-79
2024/01/05 14:56:18;;;;;;;2.92;1.35;;;;;;;7.69;70.11;98733.88;10418805;28;20049;-83
2024/01/05 15:01:21;;;;;;;4.55;1.60;;;;;;;7.70;70.38;98739.03;10452921;28;20055;-78
2024/01/05 15:06:26;;;;;;;0.90;0.50;;;;;;;7.34;69.25;98746.03;10457622;28;20114;-80
2024/01/05 15:11:31;;;;;;;2.22;0.60;;;;;;;7.67;68.08;98746.53;10468762;28;20052;-79
2024/01/05 15:16:39;;;;;;;4.13;0.60;;;;;;;7.43;67.88;98749.66;10460869;28;20036;-80
2024/01/05 15:21:44;;;;;;;4.63;0.40;;;;;;;7.30;67.60;98736.66;10451711;28;20045;-81
2024/01/05 15:26:47;;;;;;;0.93;0.70;;;;;;;6.94;68.80;98754.22;10450163;28;20049;-80
2024/01/05 15:31:52;;;;;;;1.20;0.68;;;;;;;7.35;67.37;98749.53;10455895;28;20041;-80
2024/01/05 15:36:56;;;;;;;1.90;0.43;;;;;;;6.94;68.39;98754.22;10450490;28;20050;-81
2024/01/05 15:41:59;;;;;;;1.15;0.40;;;;;;;6.91;71.83;98766.06;10480772;28;20055;-80
2024/01/05 15:47:02;;;;;;;1.55;0.32;;;;;;;6.91;72.91;98768.72;10469075;28;20048;-81
2024/01/05 15:52:07;;;;;;;1.98;0.65;;;;;;;6.93;75.87;98780.06;10475709;28;20040;-79
2024/01/05 15:57:10;;;;;;;1.45;0.30;;;;;;;6.27;77.77;98798.47;10470153;28;20059;-81
2024/01/05 16:02:13;;;;;;;2.17;0.60;;;;;;;6.57;79.25;98776.22;10485031;28;20140;-79
2024/01/05 16:07:17;;;;;;;0.45;0.40;;;;;;;6.74;81.40;98782.72;10498296;28;20115;-80
2024/01/05 16:12:20;;;;;;;3.67;0.98;;;;;;;5.94;89.97;98789.78;10439538;28;20055;-81
2024/01/05 16:17:23;;;;;;;3.08;0.75;;;;;;;5.58;97.55;98789.31;10441637;28;20177;-81
2024/01/05 16:22:30;;;;;;;2.03;0.60;;;;;;;5.45;98.22;98786.84;10426966;28;20106;-80
2024/01/05 16:27:33;;;;;;;3.20;1.05;;;;;;;5.53;95.34;98782.72;10458291;28;20072;-81
2024/01/05 16:32:39;;;;;;;3.13;0.70;;;;;;;5.86;94.49;98782.44;10464381;28;20052;-81
2024/01/05 16:37:46;;;;;;;1.95;0.80;;;;;;;6.05;92.43;98783.53;10468249;28;20055;-81
2024/01/05 16:42:49;;;;;;;2.60;0.88;;;;;;;6.06;89.99;98787.88;10482568;28;20052;-81
2024/01/05 16:47:52;;;;;;;1.65;0.70;;;;;;;6.28;89.47;98792.16;10513183;28;20788;-80
2024/01/05 16:52:57;;;;;;;5.35;0.82;;;;;;;6.32;87.93;98801.59;10494573;28;20212;-80
2024/01/05 16:58:00;;;;;;;2.08;0.60;;;;;;;6.35;86.24;98798.63;10509815;28;20048;-81
2024/01/05 17:03:04;;;;;;;3.33;0.70;;;;;;;6.34;85.62;98808.47;10498865;28;20054;-81
2024/01/05 17:08:08;;;;;;;1.42;0.60;;;;;;;6.21;85.73;98812.34;10494598;28;20051;-81
2024/01/05 17:13:11;;;;;;;3.65;0.98;;;;;;;6.29;85.89;98813.34;10490817;28;20058;-81
2024/01/05 17:18:17;;;;;;;10.52;1.38;;;;;;;6.32;85.50;98820.25;10474470;28;20056;-80
2024/01/05 17:23:21;;;;;;;0.77;0.75;;;;;;;6.06;86.58;98819.84;10464123;28;20811;-81
2024/01/05 17:28:24;;;;;;;1.10;0.85;;;;;;;5.57;89.99;98827.59;10459881;28;20056;-80
2024/01/05 17:33:28;;;;;;;3.03;1.00;;;;;;;5.77;94.42;98820.56;10463089;28;20049;-80
2024/01/05 17:38:32;;;;;;;3.05;1.20;;;;;;;5.52;97.57;98818.31;10458100;28;20048;-81
2024/01/05 17:43:35;;;;;;;4.07;1.20;;;;;;;5.19;100.00;98830.81;10464670;28;20583;-80
2024/01/05 17:48:38;;;;;;;5.47;1.40;;;;;;;5.26;100.00;98837.31;10492262;28;20048;-82
2024/01/05 17:53:43;;;;;;;3.80;1.30;;;;;;;5.21;100.00;98832.38;10500818;28;20167;-83
2024/01/05 17:58:46;;;;;;;4.22;1.55;;;;;;;5.12;100.00;98850.94;10491535;28;20044;-82
2024/01/05 18:03:49;;;;;;;5.35;1.25;;;;;;;4.88;100.00;98846.59;10488571;28;20059;-81
2024/01/05 18:08:54;;;;;;;3.70;1.30;;;;;;;5.11;100.00;98842.09;10473303;28;20056;-83
2024/01/05 18:13:58;;;;;;;5.25;1.65;;;;;;;5.06;100.00;98845.13;10504221;28;20044;-84
2024/01/05 18:19:01;;;;;;;5.60;1.80;;;;;;;5.04;100.00;98855.06;10475523;28;20104;-84
2024/01/05 18:24:06;;;;;;;4.40;1.80;;;;;;;5.03;100.00;98853.38;10474997;28;20048;-84
2024/01/05 18:29:10;;;;;;;6.10;1.70;;;;;;;4.99;100.00;98845.75;10479552;28;20059;-82
2024/01/05 18:34:30;;;;;;;5.57;2.08;;;;;;;4.99;100.00;98862.59;10499289;28;20448;-83
2024/01/05 18:39:36;;;;;;;6.22;2.15;;;;;;;4.86;100.00;98861.88;10472134;28;20051;-82
2024/01/05 18:44:41;;;;;;;5.28;2.08;;;;;;;4.82;100.00;98866.56;10469587;28;20048;-83
2024/01/05 18:49:44;;;;;;;7.97;2.17;;;;;;;4.87;100.00;98863.56;10427790;28;20615;-82
2024/01/05 18:54:49;;;;;;;3.83;1.80;;;;;;;4.91;100.00;98878.31;10441344;28;20052;-83
2024/01/05 18:59:52;;;;;;;9.07;2.83;;;;;;;4.99;100.00;98875.91;10451035;28;20049;-83
2024/01/05 19:04:56;;;;;;;5.63;2.42;;;;;;;4.89;100.00;98882.91;10491245;28;20040;-83
2024/01/05 19:10:00;;;;;;;3.78;2.03;;;;;;;4.96;100.00;98889.41;10518107;28;20051;-83
2024/01/05 19:15:04;;;;;;;2.85;1.67;;;;;;;4.66;100.00;98898.03;10482727;28;20056;-82
2024/01/05 19:20:08;;;;;;;5.47;2.08;;;;;;;4.93;100.00;98894.97;10480838;28;20104;-82
2024/01/05 19:25:13;;;;;;;7.18;2.33;;;;;;;4.64;100.00;98907.97;10508238;28;20692;-83
2024/01/05 19:30:17;;;;;;;7.88;2.08;;;;;;;4.75;100.00;98896.50;10494250;28;20054;-81
2024/01/05 19:35:20;;;;;;;9.02;2.50;;;;;;;4.94;100.00;98907.34;10491157;28;20670;-83
2024/01/05 19:40:25;;;;;;;6.55;3.53;;;;;;;4.74;100.00;98905.41;10509148;28;20055;-83
2024/01/05 19:45:28;;;;;;;7.65;2.95;;;;;;;4.71;100.00;98908.31;10503109;28;20059;-82
2024/01/05 19:50:31;;;;;;;4.40;2.65;;;;;;;4.89;100.00;98901.53;10480908;28;20044;-85
2024/01/05 19:55:35;;;;;;;5.38;3.20;;;;;;;4.83;100.00;98905.53;10483222;28;20151;-83
2024/01/05 20:00:38;;;;;;;7.55;3.20;;;;;;;4.76;100.00;98911.47;10495614;28;20055;-82
2024/01/05 20:05:42;;;;;;;7.70;3.25;;;;;;;4.79;100.00;98905.91;10499916;28;21224;-83
2024/01/05 20:10:46;;;;;;;6.05;3.60;;;;;;;4.79;100.00;98903.22;10476987;28;20131;-82
2024/01/05 20:15:49;;;;;;;5.75;2.90;;;;;;;4.43;100.00;98921.16;10485355;28;20828;-83
2024/01/05 20:20:52;;;;;;;5.93;2.50;;;;;;;4.83;100.00;98910.84;10511963;28;20112;-82
2024/01/05 20:25:57;;;;;;;5.43;2.88;;;;;;;4.54;100.00;98920.31;10516015;28;20044;-83
2024/01/05 20:31:00;;;;;;;9.38;3.38;;;;;;;4.57;100.00;98906.78;10499831;28;21054;-82
2024/01/05 20:36:03;;;;;;;5.63;4.28;;;;;;;4.81;100.00;98911.94;10497739;28;20052;-82
2024/01/05 20:41:08;;;;;;;5.95;3.05;;;;;;;4.73;100.00;98903.72;10502096;28;20036;-82
2024/01/05 20:46:11;;;;;;;8.88;4.40;;;;;;;4.85;100.00;98910.72;10500759;28;20040;-82
2024/01/05 20:51:18;;;;;;;7.05;4.30;;;;;;;4.80;100.00;98912.91;10484211;28;20058;-81
2024/01/05 20:56:22;;;;;;;5.00;3.63;;;;;;;4.95;100.00;98914.34;10507699;28;20119;-80
2024/01/05 21:01:25;;;;;;;6.35;3.97;;;;;;;5.03;100.00;98919.91;10508051;28;20048;-81
2024/01/05 21:06:28;;;;;;;7.95;4.22;;;;;;;4.85;100.00;98929.34;10497307;28;20044;-82
2024/01/05 21:11:33;;;;;;;6.13;4.70;;;;;;;4.98;100.00;98934.53;10500016;28;20142;-82
2024/01/05 21:16:40;;;;;;;8.63;3.92;;;;;;;5.02;100.00;98931.53;10503011;28;20124;-83
2024/01/05 21:21:45;;;;;;;6.57;4.13;;;;;;;4.90;100.00;98936.97;10507506;28;20460;-82
2024/01/05 21:26:50;;;;;;;7.78;4.75;;;;;;;4.97;100.00;98939.00;10456021;28;20048;-82
2024/01/05 21:31:54;;;;;;;6.30;4.75;;;;;;;4.71;100.00;98937.59;10481920;28;20048;-83
2024/01/05 21:36:58;;;;;;;8.13;5.55;;;;;;;4.98;100.00;98943.34;10501983;28;20113;-81
2024/01/05 21:42:03;;;;;;;8.57;4.85;;;;;;;4.89;100.00;98941.44;10440404;28;20056;-83
2024/01/05 21:47:06;;;;;;;9.27;5.30;;;;;;;5.09;100.00;98945.19;10487623;28;20178;-82
2024/01/05 21:52:09;;;;;;;13.50;5.25;;;;;;;5.10;100.00;98944.22;10493307;28;20395;-82
2024/01/05 21:57:14;;;;;;;11.25;5.03;;;;;;;5.05;100.00;98949.91;10447171;28;20606;-82
2024/01/05 22:02:17;;;;;;;8.18;5.07;;;;;;;5.16;100.00;98943.72;10483160;28;20039;-82
2024/01/05 22:07:20;;;;;;;11.88;5.75;;;;;;;4.88;100.00;98961.03;10497121;28;20044;-82
2024/01/05 22:12:25;;;;;;;11.63;6.03;;;;;;;4.77;100.00;98964.56;10478489;28;20423;-82
2024/01/05 22:17:28;;;;;;;8.93;4.80;;;;;;;4.68;100.00;98965.28;10507272;28;20821;-83
2024/01/05 22:22:31;;;;;;;15.90;6.50;;;;;;;4.59;100.00;98974.00;10484776;28;20044;-83
2024/01/05 22:27:35;;;;;;;9.93;6.68;;;;;;;4.95;100.00;98982.69;10494196;28;20241;-82
2024/01/05 22:32:39;;;;;;;10.32;6.72;;;;;;;4.89;100.00;98983.19;10501774;28;20068;-82
2024/01/05 22:37:42;;;;;;;8.00;6.65;;;;;;;5.11;100.00;98990.31;10514586;28;20079;-82
2024/01/05 22:42:49;;;;;;;8.52;6.22;;;;;;;4.89;100.00;98988.50;10511401;28;20056;-82
2024/01/05 22:47:53;;;;;;;9.30;6.70;;;;;;;5.17;100.00;99000.47;10485919;28;20469;-82
2024/01/05 22:52:56;;;;;;;11.27;7.57;;;;;;;5.21;100.00;99000.09;10478725;28;20044;-81
2024/01/05 22:58:00;;;;;;;10.07;7.70;;;;;;;5.06;100.00;99001.31;10483706;28;20045;-82
2024/01/05 23:03:06;;;;;;;12.32;8.43;;;;;;;5.08;100.00;99009.19;10486924;28;20055;-83
2024/01/05 23:08:09;;;;;;;14.18;9.45;;;;;;;5.16;100.00;98996.97;10481873;28;20053;-82
2024/01/05 23:13:13;;;;;;;14.00;10.30;;;;;;;5.08;100.00;99003.88;10486368;28;20047;-81
2024/01/05 23:18:17;;;;;;;18.40;12.70;;;;;;;4.89;100.00;99015.09;10481824;28;20165;-82
2024/01/05 23:23:20;;;;;;;20.33;13.30;;;;;;;4.87;100.00;99009.88;10489169;28;20109;-81
2024/01/05 23:28:25;;;;;;;21.00;12.63;;;;;;;4.36;100.00;99021.84;10462763;28;20122;-79